Hertford, NC (27944)

1:14 AM EDT on July 29, 2014 (GMT -0400)
Durants Neck (KNCHERTF1) Elev 10 ft | 36.16 °N, 76.32 °W | Change Station

Current weather conditions updated 8 seconds ago

Clear
Clear
68.4 °F
Feels Like 68.4 °F
N
0.0
Wind Variable Wind from SW
Gusts 1.0 mph

Today is forecast to be Much Cooler than yesterday.

Today
High -- | Low -- °F
--% Chance of Precip.
Yesterday
High -- | Low -- °F
Precip. -- in
6:10 AM 8:13 PM
Waxing Crescent, 5% visible
Pressure 29.82 in
Visibility 10.0 miles
Clouds Clear
Dew Point 62 °F
Humidity 79%
Rainfall 0.00 in
Snow Depth Not available.
UV 0 out of 12
Pollen 7.10 out of 12
Air Quality Not available.
Flu Activity Not available.
METAR KECG 290454Z AUTO 29006KT 10SM CLR 21/16 A2982 RMK AO2 SLP098 T02110161 403110200 TSNO

More Conditions Fewer Conditions

Pressure 29.82 in
Visibility 10.0 miles
Clouds Clear
Dew Point 62 °F
Humidity 79%
Rainfall 0.00 in
Snow Depth Not available.
UV 0 out of 12
Pollen 7.10 out of 12
Air Quality Not available.
Flu Activity Not available.
METAR KECG 290454Z AUTO 29006KT 10SM CLR 21/16 A2982 RMK AO2 SLP098 T02110161 403110200 TSNO

More Conditions Fewer Conditions

10-Day Weather Forecast

Almanac

Astronomy

Jul. 29, 2014 Rise Set
Actual Time 6:10 AM EDT 8:13 PM EDT
Civil Twilight 5:41 AM EDT 8:41 PM EDT
Nautical Twilight 5:06 AM EDT 9:16 PM EDT
Astronomical Twilight 4:29 AM EDT 9:53 PM EDT
Moon 8:38 AM EDT 9:31 PM EDT
Length of Visible Light 15h 00m
Length of Day
14h 03m
Tomorrow will be 1m 38s shorter.
Waxing Crescent, 5% of the Moon is Illuminated
Today
Waxing Crescent
Aug 3
First Quarter
Aug 10
Full
Aug 17
Last Quarter
Aug 25
New

Today's Extremes

State Highs State Lows

Community

WunderPhotos

Upload Photos

1,738,642 photos uploaded!

Nearby

Snow Depth

Station Depth Elevation
No new snow has been reported.

Earthquake Activity

City Distance Mag. Time & Date
No recent earthquake activity has been reported nearby.
Minimum magnitude displayed is 2.5.

Coastal Water Temperatures

Place Temperature
Oregon Inlet Marina, NC 82.0 °F
Duck Pier, NC 62.1 °F
Hatteras, NC 82.0 °F
Money Point, VA 80.1 °F
Sewells Point, VA 80.1 °F
Chesapeake Bay Bridge Tunnel, VA 77.0 °F

Nearby Weather Stations

Station Location Temp. Heat Index Dew Point Humidity Wind Precip. Elev Updated Type
Durants Neck, Hertford, NC 68.4 °F - 62 °F 79% SW  at  0.0 mph 0.00 in / hr 10 ft 1:14 AM EDT Rapid Fire
North Light Farms, Hertford, NC 68.6 °F - 63 °F 82% WNW  at  1.0 mph 0.00 in / hr 20 ft 1:14 AM EDT Rapid Fire
Albemarle Plantation Marina, Hertford, NC 74.3 °F 76 °F 63 °F 68% NW  at  0.0 mph 0.00 in / hr 15 ft 1:10 AM EDT Normal
Holiday Island Road, Hertford, NC 65.8 °F - 63 °F 91% SW  at  0.0 mph 0.00 in / hr 10 ft 1:12 AM EDT Normal
Forest Park, Elizabeth City, NC 69.3 °F - 63 °F 80% West  at  0.0 mph 0.00 in / hr 46 ft 1:14 AM EDT Rapid Fire
APRSWXNET Roper NC , Roper, NC 72 °F 76 °F 59 °F 63% North  at  4 mph 0.00 in / hr 6 ft 12:32 AM EDT MADIS

Show More Stations Show Fewer Stations